createdAt,value
2023-12-13T05:22:03.430Z,11.13
2023-12-13T05:24:50.207Z,19.70
2023-12-13T05:27:36.842Z,15.37
2023-12-13T05:30:25.215Z,11.43
2023-12-13T05:33:12.322Z,13.70
2023-12-13T05:35:58.874Z,11.47
2023-12-13T05:38:47.857Z,14.00
2023-12-13T05:41:34.454Z,17.27
2023-12-13T05:44:23.990Z,11.47
2023-12-13T05:47:10.648Z,13.17
2023-12-13T05:49:58.156Z,13.27
2023-12-13T05:52:45.365Z,12.27
2023-12-13T05:55:33.472Z,13.50
2023-12-13T05:58:20.602Z,16.00
2023-12-13T06:01:08.122Z,11.43
2023-12-13T06:03:56.566Z,10.37
2023-12-13T06:06:45.908Z,13.60
2023-12-13T06:09:32.697Z,11.57
2023-12-13T06:12:20.890Z,11.73
2023-12-13T06:15:08.544Z,11.10
2023-12-13T06:17:55.534Z,11.83
2023-12-13T06:20:41.895Z,11.30
2023-12-13T06:23:28.482Z,20.83
2023-12-13T06:26:15.092Z,12.90
2023-12-13T06:29:03.220Z,13.57
2023-12-13T06:31:50.476Z,10.67
2023-12-13T06:34:36.918Z,10.70
2023-12-13T06:37:23.799Z,12.70
2023-12-13T06:40:11.008Z,17.13
2023-12-13T06:42:57.786Z,12.03
2023-12-13T06:45:45.687Z,10.90
2023-12-13T06:48:32.443Z,8.50
2023-12-13T06:51:18.913Z,19.77
2023-12-13T06:54:05.581Z,14.97
2023-12-13T06:56:52.433Z,8.70
2023-12-13T06:59:39.373Z,7.30
2023-12-13T07:02:27.250Z,8.80
2023-12-13T07:05:14.094Z,10.30
2023-12-13T07:08:01.418Z,22.50
2023-12-13T07:10:48.434Z,9.73
2023-12-13T07:13:35.294Z,9.63
2023-12-13T07:16:22.231Z,8.50
2023-12-13T07:19:10.161Z,10.07
2023-12-13T07:21:56.898Z,7.73
2023-12-13T07:24:43.669Z,7.13
2023-12-13T07:27:30.287Z,6.67
2023-12-13T07:30:17.628Z,9.00
2023-12-13T07:33:05.498Z,9.67
2023-12-13T07:35:53.876Z,9.30
2023-12-13T07:38:42.561Z,7.47
2023-12-13T07:41:29.597Z,9.70
2023-12-13T07:44:17.988Z,8.20
2023-12-13T07:47:05.381Z,9.73
2023-12-13T16:08:16.724Z,13.93
2023-12-13T16:11:08.844Z,10.73
2023-12-13T16:13:55.750Z,13.00
2023-12-13T16:16:42.784Z,13.33
2023-12-13T16:19:30.295Z,11.00
2023-12-13T16:22:17.108Z,16.23
2023-12-13T16:25:05.742Z,27.60
2023-12-13T16:27:52.747Z,17.87
2023-12-13T16:30:39.384Z,14.97
2023-12-13T16:33:26.390Z,19.73
2023-12-13T16:36:13.183Z,16.23
2023-12-13T16:39:00.270Z,21.00
2023-12-13T16:41:48.559Z,17.63
2023-12-13T16:44:35.327Z,30.40
2023-12-13T16:47:21.998Z,11.67
2023-12-13T16:50:10.733Z,14.47
2023-12-13T16:52:57.634Z,11.63
2023-12-13T16:55:44.208Z,78.00
2023-12-13T16:58:34.936Z,26.07
2023-12-13T17:01:21.998Z,21.50
2023-12-13T17:04:08.971Z,17.60
2023-12-13T17:06:55.766Z,25.20
2023-12-13T17:09:42.468Z,27.80
2023-12-13T17:12:29.456Z,14.70
2023-12-13T17:15:17.402Z,11.00
2023-12-13T17:18:04.629Z,13.23
2023-12-13T17:20:51.675Z,12.50
2023-12-13T17:23:38.193Z,13.47
2023-12-13T17:26:24.956Z,15.27
2023-12-13T17:29:16.952Z,11.63
2023-12-13T17:32:08.573Z,14.43
2023-12-13T17:34:55.632Z,11.23
2023-12-13T17:37:42.208Z,11.77
2023-12-13T17:40:32.291Z,14.90
2023-12-13T17:43:19.078Z,14.90
2023-12-13T17:46:06.482Z,15.40
2023-12-13T17:48:54.498Z,12.47
2023-12-13T17:51:41.350Z,17.23
2023-12-13T17:54:28.343Z,15.90
2023-12-13T17:57:15.178Z,37.37
2023-12-13T18:00:05.798Z,33.57
2023-12-13T18:02:52.513Z,19.07
2023-12-13T18:05:40.535Z,21.07
2023-12-13T18:08:27.378Z,18.80
2023-12-13T18:11:14.326Z,18.87
2023-12-13T18:14:02.283Z,17.90
2023-12-13T18:16:49.302Z,25.37
2023-12-13T18:19:35.946Z,18.47
2023-12-13T18:22:23.892Z,23.70
2023-12-13T18:25:11.085Z,37.87
2023-12-13T18:27:57.706Z,29.30
2023-12-13T18:30:45.829Z,23.33
2023-12-13T18:33:32.779Z,21.30
2023-12-13T18:36:19.237Z,18.87
2023-12-13T18:39:07.571Z,21.33
2023-12-13T18:41:54.828Z,22.47
2023-12-13T18:44:41.551Z,24.73
2023-12-13T18:47:30.888Z,29.50
2023-12-13T18:50:18.152Z,23.07
2023-12-13T18:53:07.141Z,21.50
2023-12-13T18:55:55.607Z,29.30
2023-12-13T18:58:42.687Z,26.63
2023-12-13T19:01:29.545Z,40.93
2023-12-13T19:04:16.091Z,50.53
2023-12-13T19:07:02.910Z,86.30
2023-12-13T19:09:49.574Z,75.80
2023-12-13T19:12:37.680Z,54.50
2023-12-13T19:15:24.600Z,41.60
2023-12-13T19:18:11.596Z,35.77
2023-12-13T19:20:58.485Z,36.13
2023-12-13T19:23:45.072Z,27.73
2023-12-13T19:26:31.632Z,33.23
2023-12-13T19:29:22.837Z,36.60
2023-12-13T19:32:09.781Z,30.17
2023-12-13T19:34:57.500Z,26.77
2023-12-13T19:37:44.207Z,24.93
2023-12-13T19:40:31.101Z,32.00
2023-12-13T19:43:17.807Z,30.00
2023-12-13T19:46:06.322Z,32.83
2023-12-13T19:48:52.992Z,40.13
2023-12-13T19:51:42.912Z,34.87
2023-12-13T19:54:29.813Z,52.73
2023-12-13T19:57:16.331Z,43.73
2023-12-13T20:00:03.010Z,32.60
2023-12-13T20:02:50.938Z,32.57
2023-12-13T20:05:37.915Z,31.13
2023-12-13T20:08:24.811Z,30.37
2023-12-13T20:11:11.577Z,35.93
2023-12-13T20:13:59.302Z,31.77
2023-12-13T20:16:47.377Z,33.23
2023-12-13T20:19:35.468Z,26.40
2023-12-13T20:22:22.306Z,26.60
2023-12-13T20:25:10.269Z,20.63
2023-12-13T20:27:57.245Z,20.17
2023-12-13T20:30:44.748Z,22.43
2023-12-13T20:33:31.742Z,19.20
2023-12-13T20:36:19.834Z,19.73
2023-12-13T20:39:09.215Z,16.70
2023-12-13T20:41:56.074Z,16.30
2023-12-13T20:44:42.621Z,15.00
2023-12-13T20:47:29.295Z,18.27
2023-12-13T20:50:17.422Z,16.07
2023-12-13T20:53:05.842Z,37.63
2023-12-13T20:55:53.015Z,20.57
2023-12-13T20:58:40.872Z,22.90
2023-12-13T21:01:27.857Z,37.07
2023-12-13T21:04:15.112Z,25.63
2023-12-13T21:07:01.752Z,19.80
2023-12-13T21:09:49.610Z,20.03
2023-12-13T21:12:36.723Z,19.57
2023-12-13T21:15:24.895Z,22.93
